createdAt,value
2023-04-04T00:00:23.884Z,78.01
2023-04-04T00:03:10.435Z,78.22
2023-04-04T00:05:36.681Z,78.49
2023-04-04T00:08:03.603Z,78.82
2023-04-04T00:10:29.732Z,79.07
2023-04-04T00:12:56.239Z,80.14
2023-04-04T00:15:22.404Z,79.52
2023-04-04T00:17:48.834Z,80.59
2023-04-04T00:20:15.435Z,79.75
2023-04-04T00:22:41.764Z,80.75
2023-04-04T00:25:08.968Z,80.06
2023-04-04T00:27:35.529Z,80.12
2023-04-04T00:30:01.622Z,82.09
2023-04-04T00:32:28.409Z,81.21
2023-04-04T00:34:56.418Z,81.07
2023-04-04T00:37:22.815Z,81.89
2023-04-04T00:39:49.189Z,81.37
2023-04-04T00:42:15.615Z,81.77
2023-04-04T00:44:41.784Z,81.90
2023-04-04T00:47:08.330Z,84.11
2023-04-04T00:49:34.877Z,83.01
2023-04-04T00:52:01.408Z,82.50
2023-04-04T00:54:29.782Z,81.80
2023-04-04T00:56:57.447Z,82.65
2023-04-04T00:59:26.130Z,82.91
2023-04-04T01:01:53.150Z,83.10
2023-04-04T01:04:19.486Z,82.92
2023-04-04T01:06:46.162Z,84.19
2023-04-04T01:09:12.557Z,84.98
2023-04-04T01:11:39.000Z,84.22
2023-04-04T01:14:05.965Z,84.22
2023-04-04T01:16:35.423Z,84.51
2023-04-04T01:19:05.954Z,85.18
2023-04-04T01:21:32.362Z,85.87
2023-04-04T01:24:00.665Z,85.16
2023-04-04T01:26:34.962Z,84.86
2023-04-04T01:29:02.968Z,85.05
2023-04-04T01:31:55.593Z,85.42
2023-04-04T01:34:41.916Z,85.52
2023-04-04T01:37:22.513Z,85.44
2023-04-04T01:39:53.499Z,86.26
2023-04-04T01:42:22.093Z,85.57
2023-04-04T01:44:55.500Z,88.16
2023-04-04T01:47:23.977Z,87.71
2023-04-04T01:49:50.043Z,86.86
2023-04-04T01:52:16.390Z,86.71
2023-04-04T01:54:42.549Z,88.60
2023-04-04T01:57:08.996Z,87.41
2023-04-04T01:59:35.626Z,88.24
2023-04-04T02:02:02.051Z,88.08
2023-04-04T02:04:29.763Z,87.87
2023-04-04T02:06:56.558Z,86.83
2023-04-04T02:09:22.721Z,86.92
2023-04-04T02:11:50.053Z,87.06
2023-04-04T02:14:16.189Z,87.73
2023-04-04T02:16:43.231Z,86.71
2023-04-04T02:19:09.452Z,88.18
2023-04-04T02:21:36.842Z,86.05
2023-04-04T02:24:03.077Z,88.04
2023-04-04T02:26:29.787Z,86.83
2023-04-04T02:28:56.020Z,86.65
2023-04-04T02:31:22.800Z,86.11
2023-04-04T02:33:48.918Z,86.15
2023-04-04T02:36:18.012Z,85.80
2023-04-04T02:38:46.090Z,85.51
2023-04-04T02:41:15.115Z,84.79
2023-04-04T02:43:41.311Z,85.48
2023-04-04T02:46:18.744Z,85.59
2023-04-04T02:48:48.736Z,85.58
2023-04-04T02:51:15.240Z,85.92
2023-04-04T02:53:41.632Z,85.94
2023-04-04T02:56:20.523Z,85.55
2023-04-04T02:58:47.732Z,84.72
2023-04-04T03:01:14.151Z,85.26
2023-04-04T03:03:40.482Z,84.82
2023-04-04T03:06:07.290Z,85.00
2023-04-04T03:08:34.955Z,84.26
2023-04-04T03:11:02.022Z,84.85
2023-04-04T03:13:28.111Z,85.44
2023-04-04T03:16:01.980Z,85.35
2023-04-04T03:18:30.873Z,84.89
2023-04-04T03:20:58.152Z,84.64
2023-04-04T03:23:24.574Z,84.31
2023-04-04T03:25:51.004Z,84.00
2023-04-04T03:28:17.337Z,83.83
2023-04-04T03:30:44.453Z,83.83
2023-04-04T03:33:11.693Z,83.28
2023-04-04T03:35:39.355Z,83.15
2023-04-04T03:38:06.030Z,84.36
2023-04-04T03:40:32.791Z,82.48
2023-04-04T03:42:58.978Z,82.71
2023-04-04T03:45:25.416Z,82.27
2023-04-04T03:47:51.642Z,81.37
2023-04-04T03:50:18.584Z,81.88
2023-04-04T03:52:50.830Z,77.23
2023-04-04T03:55:18.564Z,75.29
2023-04-04T03:57:44.764Z,75.31
2023-04-04T04:00:14.073Z,73.67
2023-04-04T04:02:40.410Z,74.09
2023-04-04T04:05:08.729Z,75.04
2023-04-04T04:07:35.116Z,74.72
2023-04-04T04:10:01.635Z,74.69
2023-04-04T04:12:27.871Z,73.63
2023-04-04T04:14:54.227Z,73.17
2023-04-04T04:17:20.346Z,72.83
2023-04-04T04:19:47.795Z,73.97
2023-04-04T04:22:15.027Z,73.39
2023-04-04T04:24:43.281Z,72.20
2023-04-04T04:27:09.370Z,72.29
2023-04-04T04:29:35.989Z,72.43
2023-04-04T04:32:02.807Z,74.14
2023-04-04T04:34:33.577Z,73.69
2023-04-04T04:36:59.740Z,74.69
2023-04-04T04:39:31.243Z,75.16
2023-04-04T04:42:09.211Z,75.69
2023-04-04T04:44:40.312Z,75.94
2023-04-04T04:47:06.765Z,76.91
2023-04-04T04:49:33.502Z,77.50
2023-04-04T04:52:04.399Z,77.62
2023-04-04T04:54:31.753Z,78.57
2023-04-04T04:56:59.819Z,81.40
2023-04-04T04:59:26.487Z,82.71
2023-04-04T05:01:52.782Z,83.89
2023-04-04T05:04:20.279Z,84.00
2023-04-04T05:07:04.307Z,84.42
2023-04-04T05:09:32.145Z,84.74
2023-04-04T05:11:58.371Z,83.83
2023-04-04T05:14:35.341Z,83.93
2023-04-04T05:17:02.575Z,83.97
2023-04-04T05:19:31.917Z,84.50
2023-04-04T05:21:58.974Z,84.62
2023-04-04T05:24:36.478Z,85.42
2023-04-04T05:27:03.288Z,86.39
2023-04-04T05:29:36.369Z,86.56
2023-04-04T05:32:03.493Z,86.70
2023-04-04T05:34:31.099Z,87.85
2023-04-04T05:36:57.224Z,88.77
2023-04-04T05:39:23.692Z,88.78
2023-04-04T05:41:59.097Z,88.77
2023-04-04T05:44:26.811Z,88.64
2023-04-04T05:46:53.724Z,88.99
2023-04-04T05:49:21.351Z,90.10
2023-04-04T05:51:56.042Z,90.50
2023-04-04T05:54:23.292Z,89.48
2023-04-04T05:56:50.864Z,89.40
2023-04-04T05:59:39.703Z,89.54
2023-04-04T06:02:08.957Z,89.88
2023-04-04T06:04:40.298Z,89.91
2023-04-04T06:07:08.233Z,89.00
2023-04-04T06:09:35.511Z,88.71
2023-04-04T06:12:03.941Z,89.37
2023-04-04T06:14:31.890Z,89.22
2023-04-04T06:17:00.267Z,89.06
2023-04-04T06:19:26.636Z,89.38
2023-04-04T06:21:52.917Z,89.03
2023-04-04T06:24:19.750Z,88.73
2023-04-04T06:26:50.639Z,88.42
2023-04-04T06:29:19.829Z,88.75
2023-04-04T06:31:46.136Z,88.55
2023-04-04T06:34:22.370Z,87.63
2023-04-04T06:36:53.177Z,87.71
2023-04-04T06:39:21.522Z,87.48
2023-04-04T06:41:49.682Z,86.79
2023-04-04T06:44:16.186Z,86.96
2023-04-04T06:46:42.495Z,85.96
2023-04-04T06:49:08.901Z,85.59
2023-04-04T06:51:35.872Z,84.57
2023-04-04T06:54:02.573Z,75.87
2023-04-04T06:56:29.552Z,72.29
2023-04-04T06:58:56.247Z,71.13
2023-04-04T07:01:22.624Z,71.46
2023-04-04T07:03:53.034Z,70.67
2023-04-04T07:06:22.998Z,71.32
2023-04-04T07:08:50.884Z,71.32
2023-04-04T07:11:17.409Z,70.78
2023-04-04T07:13:43.846Z,71.61
2023-04-04T07:16:11.051Z,70.38
2023-04-04T07:18:37.465Z,72.67
2023-04-04T07:21:04.047Z,71.04
2023-04-04T07:23:30.539Z,70.83
2023-04-04T07:25:56.666Z,72.72
2023-04-04T07:28:23.634Z,71.15
2023-04-04T07:30:49.798Z,71.41
2023-04-04T07:33:16.397Z,69.81
2023-04-04T07:35:42.640Z,69.53
2023-04-04T07:38:09.499Z,69.54
2023-04-04T07:40:36.011Z,66.29
2023-04-04T07:43:02.486Z,66.61
2023-04-04T07:45:28.558Z,67.95
2023-04-04T07:47:55.243Z,70.01
2023-04-04T07:50:21.803Z,70.36
2023-04-04T07:52:53.773Z,70.84
2023-04-04T07:55:19.969Z,68.67
2023-04-04T07:57:46.887Z,67.15
2023-04-04T08:00:13.778Z,65.68
2023-04-04T08:02:40.508Z,67.98
2023-04-04T08:05:07.629Z,68.81
2023-04-04T08:07:34.015Z,69.25
2023-04-04T08:10:00.668Z,69.80
2023-04-04T08:12:27.160Z,69.66
2023-04-04T08:14:53.249Z,70.54
2023-04-04T08:17:20.375Z,69.63
2023-04-04T08:19:46.512Z,70.09
2023-04-04T08:22:13.004Z,70.22
2023-04-04T08:24:39.173Z,70.82
2023-04-04T08:27:06.149Z,70.39
2023-04-04T08:29:33.534Z,68.95
2023-04-04T08:32:00.044Z,68.03
2023-04-04T08:34:26.291Z,68.76
2023-04-04T08:36:52.974Z,66.88
2023-04-04T08:39:19.039Z,65.26
2023-04-04T08:41:45.642Z,65.36
2023-04-04T08:44:17.345Z,64.65
2023-04-04T08:46:45.303Z,65.09
2023-04-04T08:49:15.626Z,65.38
2023-04-04T08:51:44.722Z,66.28
2023-04-04T08:54:12.539Z,65.87
2023-04-04T08:56:39.109Z,65.81
2023-04-04T08:59:05.494Z,65.74
2023-04-04T09:01:32.589Z,64.95
2023-04-04T09:03:59.927Z,65.54
2023-04-04T09:06:27.253Z,64.17
2023-04-04T09:08:54.136Z,65.35
2023-04-04T09:11:25.741Z,65.79
2023-04-04T09:13:54.686Z,66.22
2023-04-04T09:16:21.302Z,67.64
2023-04-04T09:18:48.153Z,66.85
2023-04-04T09:21:15.381Z,67.68
2023-04-04T09:23:43.981Z,67.74
2023-04-04T09:26:12.476Z,67.67
2023-04-04T09:28:39.174Z,68.80
2023-04-04T09:31:09.277Z,66.68
2023-04-04T09:33:38.140Z,67.93
2023-04-04T09:36:09.670Z,66.89
2023-04-04T09:38:39.705Z,67.54
2023-04-04T09:41:10.575Z,66.95
2023-04-04T09:43:41.273Z,67.08
2023-04-04T09:46:08.240Z,66.25
2023-04-04T09:48:35.993Z,67.07
2023-04-04T09:51:09.954Z,66.81
2023-04-04T09:53:39.125Z,66.77
2023-04-04T09:56:06.458Z,65.83
2023-04-04T09:58:36.510Z,65.98
2023-04-04T10:01:08.338Z,66.69
2023-04-04T10:03:37.620Z,65.78
2023-04-04T10:06:10.218Z,64.77
2023-04-04T10:08:39.690Z,64.92
2023-04-04T10:11:11.967Z,63.36
2023-04-04T10:13:40.526Z,63.75
2023-04-04T10:16:08.383Z,62.50
2023-04-04T10:18:36.164Z,62.38
2023-04-04T10:23:40.626Z,60.57
2023-04-04T10:26:09.195Z,60.49
2023-04-04T10:28:36.093Z,61.15
2023-04-04T10:31:14.339Z,61.33
2023-04-04T10:34:19.481Z,62.45
2023-04-04T10:36:50.828Z,62.67
2023-04-04T10:39:26.566Z,63.62
2023-04-04T10:41:54.588Z,64.12
2023-04-04T10:44:29.499Z,63.99
2023-04-04T10:46:59.476Z,64.10
2023-04-04T10:49:29.070Z,62.84
2023-04-04T10:51:57.431Z,63.07
2023-04-04T10:54:27.140Z,63.30
2023-04-04T10:56:59.869Z,63.59
2023-04-04T10:59:26.543Z,63.72
2023-04-04T11:01:58.058Z,64.47
2023-04-04T11:04:30.888Z,63.99
2023-04-04T11:07:07.024Z,62.52
2023-04-04T11:09:53.720Z,63.43
2023-04-04T11:12:30.710Z,62.64
2023-04-04T11:15:05.474Z,63.16
2023-04-04T11:17:58.959Z,63.99
2023-04-04T11:20:34.191Z,63.70
2023-04-04T11:23:05.693Z,65.58
2023-04-04T11:25:38.076Z,65.21
2023-04-04T11:28:28.546Z,64.97
2023-04-04T11:31:40.148Z,64.03
2023-04-04T11:34:08.461Z,64.20
2023-04-04T11:36:34.766Z,62.46
2023-04-04T11:39:24.046Z,63.56
2023-04-04T11:42:13.836Z,64.15
2023-04-04T11:44:50.563Z,62.36
2023-04-04T11:47:23.306Z,62.85
2023-04-04T11:49:52.848Z,61.69
2023-04-04T11:52:19.553Z,61.18
2023-04-04T11:54:47.309Z,61.03
2023-04-04T11:57:15.425Z,60.80
2023-04-04T11:59:44.723Z,60.98
2023-04-04T12:02:12.691Z,61.91
2023-04-04T12:04:42.656Z,61.22
2023-04-04T12:07:10.799Z,60.59
2023-04-04T12:09:38.151Z,61.09
2023-04-04T12:12:06.835Z,61.42
2023-04-04T12:14:33.509Z,60.89
2023-04-04T12:17:01.966Z,60.51
2023-04-04T12:19:29.005Z,60.16
2023-04-04T12:21:56.911Z,59.16
2023-04-04T12:24:23.731Z,59.73
2023-04-04T12:26:52.178Z,60.42
2023-04-04T12:29:22.113Z,61.70
2023-04-04T12:31:51.097Z,60.17
2023-04-04T12:34:22.031Z,59.58
2023-04-04T12:36:52.023Z,59.98
2023-04-04T12:39:21.021Z,60.22
2023-04-04T12:41:50.651Z,60.82
2023-04-04T12:44:28.768Z,60.43
2023-04-04T12:46:59.316Z,60.28
2023-04-04T12:49:45.081Z,60.12
2023-04-04T12:52:31.745Z,59.48
2023-04-04T12:55:08.404Z,58.81
2023-04-04T12:57:37.977Z,60.81
2023-04-04T13:00:07.537Z,60.63
2023-04-04T13:02:35.731Z,60.91
2023-04-04T13:05:03.446Z,59.54
2023-04-04T13:07:33.040Z,59.99
2023-04-04T13:10:04.902Z,60.84
2023-04-04T13:12:55.973Z,60.88
2023-04-04T13:15:23.169Z,58.97
2023-04-04T13:17:50.785Z,59.86
2023-04-04T13:20:18.961Z,60.52
2023-04-04T13:22:45.477Z,60.69
2023-04-04T13:25:12.044Z,59.10
2023-04-04T13:27:38.597Z,59.20
2023-04-04T13:30:07.636Z,60.86
2023-04-04T13:32:36.029Z,62.20
2023-04-04T13:35:02.932Z,61.45
2023-04-04T13:37:29.266Z,61.83
2023-04-04T13:39:56.057Z,61.00
2023-04-04T13:42:26.536Z,60.58
2023-04-04T13:44:53.312Z,60.78
2023-04-04T13:47:22.237Z,60.05
2023-04-04T13:49:49.098Z,60.25
2023-04-04T13:52:15.723Z,60.67
2023-04-04T13:54:43.333Z,60.47
2023-04-04T13:57:10.023Z,59.61
2023-04-04T13:59:36.838Z,60.28
2023-04-04T14:02:03.847Z,61.66
2023-04-04T14:04:30.674Z,60.31
2023-04-04T14:06:56.970Z,60.99
2023-04-04T14:09:23.722Z,57.42
2023-04-04T14:11:50.523Z,58.10
2023-04-04T14:14:17.564Z,59.72
2023-04-04T14:16:44.262Z,59.83
2023-04-04T14:19:11.058Z,59.16
2023-04-04T14:21:37.701Z,59.06
2023-04-04T14:24:05.289Z,57.82
2023-04-04T14:26:33.320Z,57.39
2023-04-04T14:29:01.152Z,57.51
2023-04-04T14:31:27.841Z,58.91
2023-04-04T14:33:54.698Z,59.05
2023-04-04T14:36:23.605Z,58.97
2023-04-04T14:38:50.470Z,57.96
2023-04-04T14:41:17.365Z,58.13
2023-04-04T14:43:44.344Z,58.16
2023-04-04T14:46:10.752Z,60.19
2023-04-04T14:48:38.187Z,58.62
2023-04-04T14:51:05.400Z,59.77
2023-04-04T14:53:32.126Z,60.32
2023-04-04T14:55:58.583Z,59.63
2023-04-04T14:58:25.164Z,60.09
2023-04-04T15:00:51.800Z,60.03
2023-04-04T15:03:18.290Z,61.44
2023-04-04T15:05:44.477Z,58.71
2023-04-04T15:08:10.911Z,57.88
2023-04-04T15:10:37.060Z,58.65
2023-04-04T15:13:03.610Z,57.85
2023-04-04T15:15:30.182Z,57.59
2023-04-04T15:17:56.850Z,56.90
2023-04-04T15:20:23.015Z,57.36
2023-04-04T15:22:49.526Z,57.88
2023-04-04T15:25:15.773Z,58.68
2023-04-04T15:27:42.320Z,58.59
2023-04-04T15:30:09.034Z,57.24
2023-04-04T15:32:35.605Z,57.48
2023-04-04T15:35:03.726Z,59.42
2023-04-04T15:37:30.435Z,58.00
2023-04-04T15:39:56.848Z,58.68
2023-04-04T15:42:25.191Z,59.13
2023-04-04T15:44:51.766Z,59.30
2023-04-04T15:47:18.226Z,56.88
2023-04-04T15:49:44.613Z,56.14
2023-04-04T15:52:11.587Z,56.16
2023-04-04T15:54:38.146Z,55.83
2023-04-04T15:57:04.764Z,58.38
2023-04-04T15:59:31.112Z,58.21
2023-04-04T16:01:57.987Z,57.59
2023-04-04T16:04:24.329Z,57.94
2023-04-04T16:06:50.940Z,57.67
2023-04-04T16:09:17.164Z,59.18
2023-04-04T16:11:43.673Z,58.15
2023-04-04T16:14:11.456Z,60.38
2023-04-04T16:16:39.821Z,58.31
2023-04-04T16:19:06.247Z,60.48
2023-04-04T16:21:33.223Z,60.31
2023-04-04T16:23:59.629Z,59.17
2023-04-04T16:26:26.902Z,58.23
2023-04-04T16:28:53.847Z,58.94
2023-04-04T16:31:21.113Z,60.58
2023-04-04T16:33:47.528Z,59.44
2023-04-04T16:36:14.021Z,62.13
2023-04-04T16:38:40.766Z,61.90
2023-04-04T16:41:08.037Z,61.23
2023-04-04T16:43:34.709Z,61.70
2023-04-04T16:46:01.652Z,61.54
2023-04-04T16:48:28.543Z,62.87
2023-04-04T16:50:56.148Z,63.45
2023-04-04T16:53:23.441Z,64.90
2023-04-04T16:55:50.806Z,64.71
2023-04-04T16:58:17.529Z,65.71
2023-04-04T17:00:44.718Z,65.96
2023-04-04T17:03:11.591Z,65.44
2023-04-04T17:05:38.625Z,66.17
2023-04-04T17:08:05.422Z,66.17
2023-04-04T17:10:33.710Z,67.02
2023-04-04T17:13:00.680Z,66.78
2023-04-04T17:15:28.004Z,67.01
2023-04-04T17:17:55.313Z,67.72
2023-04-04T17:20:22.183Z,68.09
2023-04-04T17:22:50.928Z,68.30
2023-04-04T17:25:17.820Z,68.29
2023-04-04T17:27:44.536Z,68.54
2023-04-04T17:30:12.734Z,68.73
2023-04-04T17:32:39.309Z,69.05
2023-04-04T17:35:07.393Z,70.10
2023-04-04T17:37:34.583Z,70.24
2023-04-04T17:40:05.044Z,70.18
2023-04-04T17:42:32.604Z,70.29
2023-04-04T17:45:00.361Z,69.56
2023-04-04T17:47:27.288Z,70.51
2023-04-04T17:49:59.148Z,71.10
2023-04-04T17:52:26.497Z,71.99
2023-04-04T17:54:54.052Z,72.21
2023-04-04T17:57:22.332Z,71.45
2023-04-04T17:59:49.822Z,71.56
2023-04-04T18:02:18.220Z,71.24
2023-04-04T18:04:48.760Z,71.74
2023-04-04T18:07:16.302Z,72.68
2023-04-04T18:09:43.656Z,73.89
2023-04-04T18:12:10.996Z,73.47
2023-04-04T18:14:37.848Z,73.25
2023-04-04T18:17:04.321Z,73.33
2023-04-04T18:19:31.243Z,72.78
2023-04-04T18:21:59.220Z,72.47
2023-04-04T18:24:29.239Z,73.66
2023-04-04T18:26:56.007Z,72.65
2023-04-04T18:29:24.212Z,73.66
2023-04-04T18:31:50.852Z,72.13
2023-04-04T18:34:17.747Z,72.00
2023-04-04T18:36:44.168Z,73.12
2023-04-04T18:39:10.887Z,71.80
2023-04-04T18:41:37.323Z,71.61
2023-04-04T18:44:04.480Z,72.00
2023-04-04T18:46:30.923Z,74.20
2023-04-04T18:48:58.127Z,74.30
2023-04-04T18:51:25.700Z,74.53
2023-04-04T18:53:52.512Z,75.65
2023-04-04T18:56:19.129Z,75.42
2023-04-04T18:58:46.113Z,76.79
2023-04-04T19:01:12.526Z,76.67
2023-04-04T19:03:42.244Z,76.74
2023-04-04T19:06:13.192Z,76.95
2023-04-04T19:08:41.827Z,77.27
2023-04-04T19:11:09.095Z,77.97
2023-04-04T19:13:36.196Z,78.32
2023-04-04T19:16:04.123Z,78.08
2023-04-04T19:18:31.591Z,79.06
2023-04-04T19:20:58.229Z,79.11
2023-04-04T19:23:27.166Z,79.37
2023-04-04T19:25:55.088Z,79.11
2023-04-04T19:28:22.107Z,79.78
2023-04-04T19:30:49.060Z,79.66
2023-04-04T19:33:20.658Z,79.54
2023-04-04T19:35:48.057Z,80.35
2023-04-04T19:38:22.100Z,80.13
2023-04-04T19:40:51.741Z,80.43
2023-04-04T19:43:20.861Z,81.39
2023-04-04T19:45:52.783Z,80.86
2023-04-04T19:48:50.556Z,81.52
2023-04-04T19:51:17.183Z,81.66
2023-04-04T19:53:46.935Z,81.56
2023-04-04T19:56:15.577Z,81.05
2023-04-04T19:58:43.316Z,80.75
2023-04-04T20:01:11.938Z,82.23
2023-04-04T20:03:40.170Z,83.10
2023-04-04T20:06:06.738Z,82.54
2023-04-04T20:08:43.640Z,82.27
2023-04-04T20:11:11.388Z,82.78
2023-04-04T20:13:39.926Z,82.59
2023-04-04T20:16:15.209Z,82.51
2023-04-04T20:18:46.417Z,82.61
2023-04-04T20:21:16.659Z,83.93
2023-04-04T20:23:52.773Z,83.48
2023-04-04T20:26:34.826Z,84.26
2023-04-04T20:29:03.924Z,84.27
2023-04-04T20:31:35.452Z,84.00
2023-04-04T20:34:05.602Z,83.81
2023-04-04T20:36:32.274Z,84.87
2023-04-04T20:38:59.862Z,84.70
2023-04-04T20:41:26.572Z,85.29
2023-04-04T20:43:58.390Z,84.65
2023-04-04T20:46:26.697Z,84.14
2023-04-04T20:48:56.056Z,84.75
2023-04-04T20:51:31.323Z,85.77
2023-04-04T20:54:02.508Z,85.91
2023-04-04T20:56:38.878Z,87.19
2023-04-04T20:59:07.028Z,86.51
2023-04-04T21:01:33.957Z,88.27
2023-04-04T21:04:01.726Z,87.64
2023-04-04T21:06:29.576Z,87.46
2023-04-04T21:08:57.036Z,87.14
2023-04-04T21:11:28.379Z,87.73
2023-04-04T21:13:56.779Z,87.37
2023-04-04T21:16:26.108Z,86.67
2023-04-04T21:18:59.077Z,87.53
2023-04-04T21:21:26.727Z,87.45
2023-04-04T21:23:53.711Z,87.00
2023-04-04T21:26:28.001Z,86.66
2023-04-04T21:28:56.674Z,86.38
2023-04-04T21:31:25.829Z,87.45
2023-04-04T21:33:58.162Z,87.64
2023-04-04T21:36:25.879Z,86.51
2023-04-04T21:38:55.409Z,86.94
2023-04-04T21:41:24.433Z,88.59
2023-04-04T21:43:55.311Z,89.25
2023-04-04T21:46:24.451Z,89.78
2023-04-04T21:48:52.168Z,89.84
2023-04-04T21:51:18.862Z,91.91
2023-04-04T21:53:46.410Z,91.99
2023-04-04T21:56:13.320Z,92.55
2023-04-04T21:58:40.885Z,93.61
2023-04-04T22:01:08.524Z,93.41
2023-04-04T22:03:37.816Z,94.50
2023-04-04T22:10:26.558Z,94.98
2023-04-04T22:17:22.148Z,95.01
2023-04-04T22:19:58.878Z,94.94
2023-04-04T22:22:29.508Z,94.40
2023-04-04T22:28:23.904Z,94.10
2023-04-04T22:30:50.360Z,93.42
2023-04-04T22:33:16.471Z,94.24
2023-04-04T22:35:45.018Z,94.77
2023-04-04T22:38:13.872Z,94.12
2023-04-04T22:40:41.272Z,94.75
2023-04-04T22:43:07.453Z,94.59
2023-04-04T22:45:33.837Z,95.08
2023-04-04T22:48:01.497Z,94.91
2023-04-04T22:50:28.057Z,94.45
2023-04-04T22:52:54.798Z,94.32
2023-04-04T22:55:24.695Z,93.92
2023-04-04T22:57:51.166Z,94.19
2023-04-04T23:00:18.126Z,94.51
2023-04-04T23:02:45.877Z,94.49
2023-04-04T23:05:15.314Z,94.16
2023-04-04T23:07:42.520Z,94.29
2023-04-04T23:10:11.015Z,94.74
2023-04-04T23:12:38.109Z,94.90
2023-04-04T23:15:06.408Z,94.16
2023-04-04T23:17:33.358Z,93.47
2023-04-04T23:20:00.690Z,94.11
2023-04-04T23:22:27.829Z,94.61
2023-04-04T23:24:54.436Z,94.69
2023-04-04T23:27:20.571Z,95.15
2023-04-04T23:29:49.824Z,94.51
2023-04-04T23:32:15.928Z,94.78
2023-04-04T23:34:42.263Z,94.53
2023-04-04T23:37:08.388Z,94.65
2023-04-04T23:39:35.028Z,95.43
2023-04-04T23:42:01.948Z,95.43
2023-04-04T23:44:28.320Z,94.29
2023-04-04T23:46:55.081Z,94.56
2023-04-04T23:49:21.807Z,94.56
2023-04-04T23:51:48.043Z,95.13
2023-04-04T23:54:15.016Z,95.34
2023-04-04T23:56:41.074Z,95.76
2023-04-04T23:59:07.604Z,95.41
